createdAt,value
2023-02-23T00:00:21.146Z,85.38
2023-02-23T00:01:30.228Z,85.51
2023-02-23T00:02:43.908Z,85.24
2023-02-23T00:04:07.198Z,85.39
2023-02-23T00:05:31.484Z,85.31
2023-02-23T00:06:54.140Z,85.40
2023-02-23T00:08:15.975Z,85.53
2023-02-23T00:09:38.762Z,85.57
2023-02-23T00:11:00.286Z,85.62
2023-02-23T00:12:23.906Z,85.48
2023-02-23T00:13:47.085Z,85.39
2023-02-23T00:15:10.075Z,85.65
2023-02-23T00:16:33.016Z,85.54
2023-02-23T00:17:56.210Z,85.80
2023-02-23T00:19:17.846Z,85.25
2023-02-23T00:20:45.132Z,85.65
2023-02-23T00:22:06.669Z,85.45
2023-02-23T00:23:29.173Z,85.63
2023-02-23T00:24:51.660Z,85.48
2023-02-23T00:26:14.575Z,85.81
2023-02-23T00:27:38.435Z,85.71
2023-02-23T00:29:01.373Z,85.99
2023-02-23T00:30:24.116Z,85.81
2023-02-23T00:31:47.764Z,85.75
2023-02-23T00:33:10.394Z,85.73
2023-02-23T00:34:32.018Z,85.82
2023-02-23T00:35:55.565Z,85.87
2023-02-23T00:37:17.917Z,85.71
2023-02-23T00:38:41.696Z,85.73
2023-02-23T00:40:05.558Z,85.67
2023-02-23T00:41:29.577Z,86.14
2023-02-23T00:42:52.763Z,85.68
2023-02-23T00:44:15.327Z,85.73
2023-02-23T00:45:38.105Z,85.79
2023-02-23T00:47:02.004Z,86.07
2023-02-23T00:48:24.518Z,85.85
2023-02-23T00:49:46.072Z,85.72
2023-02-23T00:51:08.605Z,86.17
2023-02-23T00:52:30.171Z,86.00
2023-02-23T00:53:55.540Z,86.12
2023-02-23T00:55:17.160Z,86.02
2023-02-23T00:56:40.411Z,86.12
2023-02-23T00:58:04.362Z,86.19
2023-02-23T00:59:26.863Z,86.27
2023-02-23T01:00:49.430Z,86.08
2023-02-23T01:02:13.293Z,85.97
2023-02-23T01:03:35.562Z,85.85
2023-02-23T01:04:58.044Z,85.87
2023-02-23T01:06:19.877Z,86.09
2023-02-23T01:07:42.516Z,86.03
2023-02-23T01:09:09.623Z,86.12
2023-02-23T01:10:32.231Z,85.99
2023-02-23T01:11:56.352Z,86.20
2023-02-23T01:13:19.373Z,86.15
2023-02-23T01:14:42.448Z,86.13
2023-02-23T01:16:05.394Z,86.22
2023-02-23T01:17:30.487Z,85.94
2023-02-23T01:18:52.080Z,86.31
2023-02-23T01:20:18.248Z,86.20
2023-02-23T01:21:42.905Z,86.15
2023-02-23T01:23:07.347Z,86.17
2023-02-23T01:24:29.984Z,86.25
2023-02-23T01:25:51.520Z,86.39
2023-02-23T01:27:14.018Z,86.09
2023-02-23T01:28:35.667Z,86.08
2023-02-23T01:29:58.209Z,86.23
2023-02-23T01:31:20.876Z,86.24
2023-02-23T01:32:44.970Z,86.29
2023-02-23T01:34:07.533Z,86.21
2023-02-23T01:35:30.583Z,86.34
2023-02-23T01:36:53.127Z,86.26
2023-02-23T01:38:15.621Z,86.35
2023-02-23T01:39:38.232Z,86.47
2023-02-23T01:41:00.163Z,86.33
2023-02-23T01:42:22.839Z,86.38
2023-02-23T01:43:57.389Z,86.51
2023-02-23T01:45:28.733Z,86.57
2023-02-23T01:46:52.959Z,86.50
2023-02-23T01:48:23.039Z,86.74
2023-02-23T01:49:45.023Z,86.67
2023-02-23T01:51:15.131Z,86.50
2023-02-23T01:52:37.627Z,86.49
2023-02-23T01:54:05.434Z,86.30
2023-02-23T01:55:29.199Z,86.60
2023-02-23T01:56:57.943Z,86.58
2023-02-23T01:58:15.113Z,86.61
2023-02-23T01:59:19.191Z,86.52
2023-02-23T02:00:25.613Z,86.51
2023-02-23T02:01:29.450Z,86.53
2023-02-23T02:02:33.680Z,86.70
2023-02-23T02:03:41.340Z,86.56
2023-02-23T02:04:44.352Z,86.84
2023-02-23T02:05:49.309Z,86.80
2023-02-23T02:06:53.733Z,86.75
2023-02-23T02:07:59.328Z,87.04
2023-02-23T02:09:06.629Z,87.06
2023-02-23T02:10:28.960Z,86.70
2023-02-23T02:11:36.185Z,86.92
2023-02-23T02:12:38.503Z,86.88
2023-02-23T02:13:41.250Z,87.00
2023-02-23T02:14:45.563Z,86.88
2023-02-23T02:16:18.214Z,86.73
2023-02-23T02:17:34.101Z,86.85
2023-02-23T02:18:48.055Z,86.91
2023-02-23T02:20:32.597Z,87.04
2023-02-23T02:22:29.925Z,86.89
2023-02-23T02:24:01.770Z,86.98
2023-02-23T02:25:30.385Z,86.89
2023-02-23T02:26:45.037Z,87.19
2023-02-23T02:28:04.184Z,87.01
2023-02-23T02:29:34.549Z,87.01
2023-02-23T02:31:08.949Z,87.27
2023-02-23T02:32:47.249Z,86.92
2023-02-23T02:34:06.706Z,87.16
2023-02-23T02:35:48.297Z,87.32
2023-02-23T02:37:19.024Z,87.06
2023-02-23T02:38:32.825Z,87.21
2023-02-23T02:39:44.772Z,87.25
2023-02-23T02:40:53.925Z,87.29
2023-02-23T02:42:05.942Z,87.27
2023-02-23T02:43:14.215Z,87.23
2023-02-23T02:44:21.208Z,87.22
2023-02-23T02:45:27.047Z,87.21
2023-02-23T02:46:35.002Z,87.36
2023-02-23T02:47:42.935Z,87.50
2023-02-23T02:48:51.842Z,87.50
2023-02-23T02:50:02.665Z,87.58
2023-02-23T02:51:09.789Z,87.25
2023-02-23T02:52:19.064Z,87.41
2023-02-23T02:53:29.797Z,87.60
2023-02-23T02:54:36.997Z,87.54
2023-02-23T02:55:43.799Z,87.64
2023-02-23T02:56:47.146Z,87.64
2023-02-23T02:57:51.366Z,87.61
2023-02-23T02:58:53.589Z,87.58
2023-02-23T03:00:13.862Z,87.56
2023-02-23T03:01:36.885Z,87.61
2023-02-23T03:02:59.215Z,87.65
2023-02-23T03:04:22.938Z,87.68
2023-02-23T03:05:47.283Z,87.65
2023-02-23T03:07:15.640Z,87.59
2023-02-23T03:08:52.157Z,87.60
2023-02-23T03:10:17.085Z,87.68
2023-02-23T03:11:37.386Z,87.73
2023-02-23T03:13:06.779Z,87.67
2023-02-23T03:14:42.058Z,87.96
2023-02-23T03:16:14.606Z,87.77
2023-02-23T03:17:43.959Z,88.01
2023-02-23T03:19:19.393Z,87.93
2023-02-23T03:20:48.888Z,88.10
2023-02-23T03:22:15.589Z,88.00
2023-02-23T03:23:41.772Z,87.94
2023-02-23T03:25:11.156Z,87.77
2023-02-23T03:26:37.512Z,87.80
2023-02-23T03:28:05.457Z,87.90
2023-02-23T03:29:33.131Z,88.08
2023-02-23T03:31:05.237Z,88.15
2023-02-23T03:32:30.981Z,88.03
2023-02-23T03:33:59.281Z,88.24
2023-02-23T03:35:25.512Z,88.40
2023-02-23T03:36:49.333Z,88.13
2023-02-23T03:38:14.615Z,88.31
2023-02-23T03:39:43.019Z,88.07
2023-02-23T03:41:07.670Z,88.04
2023-02-23T03:42:34.748Z,88.39
2023-02-23T03:44:00.515Z,88.17
2023-02-23T03:45:25.092Z,88.18
2023-02-23T03:46:48.381Z,88.30
2023-02-23T03:48:11.980Z,88.43
2023-02-23T03:49:34.706Z,88.29
2023-02-23T03:50:58.990Z,88.16
2023-02-23T03:52:25.933Z,88.37
2023-02-23T03:53:50.316Z,88.20
2023-02-23T03:55:15.679Z,88.12
2023-02-23T03:56:40.108Z,88.22
2023-02-23T03:58:04.211Z,88.32
2023-02-23T03:59:26.203Z,88.18
2023-02-23T04:00:49.679Z,88.57
2023-02-23T04:02:12.792Z,88.42
2023-02-23T04:03:36.209Z,88.31
2023-02-23T04:04:57.179Z,88.47
2023-02-23T04:06:17.538Z,88.73
2023-02-23T04:07:38.808Z,88.57
2023-02-23T04:08:59.397Z,88.57
2023-02-23T04:10:22.678Z,88.56
2023-02-23T04:11:47.177Z,88.60
2023-02-23T04:13:15.076Z,88.64
2023-02-23T04:14:20.454Z,88.49
2023-02-23T04:15:27.840Z,88.67
2023-02-23T04:16:31.445Z,88.80
2023-02-23T04:17:34.619Z,88.43
2023-02-23T04:18:38.336Z,88.79
2023-02-23T04:19:50.245Z,88.71
2023-02-23T04:20:51.892Z,88.68
2023-02-23T04:21:54.871Z,88.94
2023-02-23T04:22:56.942Z,88.88
2023-02-23T04:23:59.623Z,88.76
2023-02-23T04:25:01.280Z,89.03
2023-02-23T04:26:05.396Z,88.96
2023-02-23T04:27:07.553Z,88.71
2023-02-23T04:28:10.090Z,88.87
2023-02-23T04:29:12.721Z,88.82
2023-02-23T04:30:15.354Z,88.81
2023-02-23T04:31:18.898Z,89.14
2023-02-23T04:32:21.775Z,88.91
2023-02-23T04:33:24.901Z,88.86
2023-02-23T04:34:27.558Z,88.90
2023-02-23T04:35:39.661Z,88.97
2023-02-23T04:36:42.680Z,88.93
2023-02-23T04:37:44.246Z,88.99
2023-02-23T04:38:46.754Z,88.94
2023-02-23T04:39:49.818Z,89.13
2023-02-23T04:40:53.550Z,88.96
2023-02-23T04:41:56.474Z,88.96
2023-02-23T04:42:59.068Z,88.90
2023-02-23T04:44:00.617Z,89.06
2023-02-23T04:45:03.155Z,89.02
2023-02-23T04:46:05.073Z,89.18
2023-02-23T04:47:07.592Z,88.82
2023-02-23T04:48:10.414Z,89.10
2023-02-23T04:49:12.143Z,89.18
2023-02-23T04:50:15.065Z,89.14
2023-02-23T04:51:17.240Z,89.10
2023-02-23T04:52:20.039Z,88.96
2023-02-23T04:53:21.729Z,88.93
2023-02-23T04:54:24.291Z,89.11
2023-02-23T04:55:26.473Z,89.29
2023-02-23T04:56:29.143Z,89.30
2023-02-23T04:57:32.037Z,89.22
2023-02-23T04:58:34.579Z,89.23
2023-02-23T04:59:36.434Z,89.42
2023-02-23T05:00:39.295Z,89.42
2023-02-23T05:01:41.360Z,89.18
2023-02-23T05:02:44.692Z,89.47
2023-02-23T05:03:46.321Z,89.30
2023-02-23T05:04:48.816Z,89.44
2023-02-23T05:05:50.421Z,89.45
2023-02-23T05:06:53.060Z,89.57
2023-02-23T05:07:54.966Z,89.35
2023-02-23T05:08:57.579Z,89.17
2023-02-23T05:09:59.234Z,89.32
2023-02-23T05:11:01.714Z,89.22
2023-02-23T05:12:03.706Z,89.31
2023-02-23T05:13:08.788Z,89.42
2023-02-23T05:14:11.683Z,89.52
2023-02-23T05:15:14.394Z,89.41
2023-02-23T05:16:16.412Z,89.53
2023-02-23T05:17:19.092Z,89.30
2023-02-23T05:18:21.654Z,89.45
2023-02-23T05:19:24.303Z,89.28
2023-02-23T05:20:26.856Z,89.40
2023-02-23T05:21:28.524Z,89.41
2023-02-23T05:22:31.030Z,89.59
2023-02-23T05:23:33.390Z,89.48
2023-02-23T05:24:39.944Z,89.58
2023-02-23T05:25:41.499Z,89.79
2023-02-23T05:26:45.061Z,89.74
2023-02-23T05:27:46.682Z,89.59
2023-02-23T05:28:50.590Z,89.58
2023-02-23T05:29:52.159Z,89.54
2023-02-23T05:30:54.784Z,89.71
2023-02-23T05:31:56.667Z,89.54
2023-02-23T05:32:59.745Z,89.52
2023-02-23T05:34:01.369Z,89.47
2023-02-23T05:35:04.424Z,89.63
2023-02-23T05:36:06.713Z,89.66
2023-02-23T05:37:10.031Z,89.71
2023-02-23T05:38:12.813Z,89.69
2023-02-23T05:39:15.346Z,89.81
2023-02-23T05:40:16.953Z,89.97
2023-02-23T05:41:22.299Z,89.85
2023-02-23T05:42:24.106Z,89.86
2023-02-23T05:43:27.604Z,89.76
2023-02-23T05:44:30.527Z,89.73
2023-02-23T05:45:33.146Z,89.94
2023-02-23T05:46:36.624Z,89.79
2023-02-23T05:47:39.697Z,90.04
2023-02-23T05:48:41.325Z,89.86
2023-02-23T05:49:46.017Z,89.92
2023-02-23T05:50:47.968Z,89.78
2023-02-23T05:51:50.568Z,89.73
2023-02-23T05:52:52.149Z,89.80
2023-02-23T05:53:54.998Z,89.90
2023-02-23T05:54:56.777Z,89.84
2023-02-23T05:55:59.359Z,89.63
2023-02-23T05:57:01.925Z,89.82
2023-02-23T05:58:04.526Z,89.79
2023-02-23T05:59:06.123Z,89.91
2023-02-23T06:00:11.899Z,89.89
2023-02-23T06:01:17.888Z,90.00
2023-02-23T06:02:20.655Z,90.01
2023-02-23T06:03:22.665Z,89.97
2023-02-23T06:04:25.554Z,90.00
2023-02-23T06:05:27.072Z,90.04
2023-02-23T06:06:29.668Z,90.06
2023-02-23T06:07:31.588Z,89.99
2023-02-23T06:08:34.500Z,90.12
2023-02-23T06:09:45.771Z,90.08
2023-02-23T06:10:47.694Z,90.11
2023-02-23T06:11:50.207Z,89.94
2023-02-23T06:12:51.761Z,89.92
2023-02-23T06:13:55.200Z,90.00
2023-02-23T06:14:57.076Z,90.38
2023-02-23T06:16:01.137Z,90.06
2023-02-23T06:17:02.811Z,90.06
2023-02-23T06:18:05.689Z,90.21
2023-02-23T06:19:07.852Z,89.94
2023-02-23T06:20:11.840Z,90.21
2023-02-23T06:21:13.411Z,90.16
2023-02-23T06:22:17.327Z,90.13
2023-02-23T06:23:18.964Z,90.24
2023-02-23T06:24:23.845Z,90.04
2023-02-23T06:25:25.403Z,90.20
2023-02-23T06:26:28.387Z,90.27
2023-02-23T06:27:30.015Z,90.32
2023-02-23T06:28:33.149Z,90.36
2023-02-23T06:29:35.013Z,90.33
2023-02-23T06:30:39.004Z,90.32
2023-02-23T06:31:42.056Z,90.50
2023-02-23T06:32:44.705Z,90.42
2023-02-23T06:33:46.344Z,90.37
2023-02-23T06:34:48.914Z,90.60
2023-02-23T06:35:50.569Z,90.57
2023-02-23T06:36:53.484Z,90.46
2023-02-23T06:37:55.199Z,90.50
2023-02-23T06:38:58.824Z,90.38
2023-02-23T06:40:07.740Z,90.48
2023-02-23T06:41:11.683Z,90.42
2023-02-23T06:42:13.271Z,90.59
2023-02-23T06:43:15.862Z,90.52
2023-02-23T06:44:17.439Z,90.45
2023-02-23T06:45:20.169Z,90.66
2023-02-23T06:46:22.044Z,90.38
2023-02-23T06:47:26.058Z,90.67
2023-02-23T06:48:27.808Z,90.58
2023-02-23T06:49:30.302Z,90.55
2023-02-23T06:50:31.955Z,90.60
2023-02-23T06:51:34.591Z,90.61
2023-02-23T06:52:36.627Z,90.49
2023-02-23T06:53:39.155Z,90.44
2023-02-23T06:54:41.706Z,90.60
2023-02-23T06:55:44.736Z,90.53
2023-02-23T06:56:46.397Z,90.39
2023-02-23T06:57:51.419Z,90.72
2023-02-23T06:58:53.168Z,90.58
2023-02-23T06:59:55.908Z,90.52
2023-02-23T07:00:59.475Z,90.68
2023-02-23T07:02:01.588Z,90.62
2023-02-23T07:03:06.790Z,90.62
2023-02-23T07:04:09.415Z,90.83
2023-02-23T07:05:11.440Z,90.87
2023-02-23T07:06:14.034Z,90.71
2023-02-23T07:07:15.893Z,90.74
2023-02-23T07:08:20.140Z,90.62
2023-02-23T07:09:21.746Z,90.68
2023-02-23T07:10:24.392Z,90.89
2023-02-23T07:11:25.974Z,90.74
2023-02-23T07:12:28.489Z,90.82
2023-02-23T07:13:30.013Z,90.82
2023-02-23T07:14:34.070Z,90.84
2023-02-23T07:15:36.461Z,91.04
2023-02-23T07:16:40.001Z,90.80
2023-02-23T07:17:41.551Z,90.76
2023-02-23T07:18:45.437Z,90.82
2023-02-23T07:19:46.980Z,90.59
2023-02-23T07:20:51.712Z,90.96
2023-02-23T07:21:54.509Z,90.57
2023-02-23T07:22:56.022Z,90.83
2023-02-23T07:23:58.925Z,90.88
2023-02-23T07:25:01.882Z,90.83
2023-02-23T07:26:04.453Z,90.99
2023-02-23T07:27:06.003Z,91.05
2023-02-23T07:28:08.513Z,90.93
2023-02-23T07:29:12.202Z,91.00
2023-02-23T07:30:15.277Z,91.03
2023-02-23T07:31:18.903Z,91.17
2023-02-23T07:32:21.787Z,90.94
2023-02-23T07:33:24.037Z,91.01
2023-02-23T07:34:28.099Z,90.96
2023-02-23T07:35:30.643Z,90.98
2023-02-23T07:36:32.463Z,90.90
2023-02-23T07:37:35.028Z,90.98
2023-02-23T07:38:36.621Z,91.05
2023-02-23T07:39:39.451Z,91.01
2023-02-23T07:40:42.522Z,91.08
2023-02-23T07:41:44.187Z,91.12
2023-02-23T07:42:46.769Z,90.93
2023-02-23T07:43:48.432Z,90.92
2023-02-23T07:44:51.077Z,90.97
2023-02-23T07:45:52.725Z,91.11
2023-02-23T07:46:55.251Z,90.99
2023-02-23T07:47:56.825Z,91.03
2023-02-23T07:48:59.449Z,90.96
2023-02-23T07:50:03.416Z,91.19
2023-02-23T07:51:10.314Z,90.91
2023-02-23T07:52:11.864Z,90.94
2023-02-23T07:53:15.133Z,91.00
2023-02-23T07:54:16.850Z,91.08
2023-02-23T07:55:19.703Z,90.95
2023-02-23T07:56:21.540Z,90.90
2023-02-23T07:57:25.086Z,91.07
2023-02-23T07:58:26.885Z,91.22
2023-02-23T07:59:29.567Z,90.94
2023-02-23T08:00:32.740Z,90.79
2023-02-23T08:01:35.956Z,91.15
2023-02-23T08:02:37.552Z,90.97
2023-02-23T08:03:40.542Z,91.00
2023-02-23T08:04:43.053Z,90.92
2023-02-23T08:05:47.029Z,90.88
2023-02-23T08:06:48.556Z,90.96
2023-02-23T08:07:51.069Z,90.83
2023-02-23T08:08:52.713Z,90.72
2023-02-23T08:09:55.228Z,90.86
2023-02-23T08:10:59.995Z,90.82
2023-02-23T08:12:02.681Z,90.65
2023-02-23T08:13:04.477Z,90.87
2023-02-23T08:14:07.368Z,90.88
2023-02-23T08:15:09.953Z,90.78
2023-02-23T08:16:12.607Z,90.86
2023-02-23T08:17:15.287Z,90.99
2023-02-23T08:18:17.530Z,90.80
2023-02-23T08:19:22.690Z,90.71
2023-02-23T08:20:25.626Z,90.71
2023-02-23T08:21:30.467Z,90.64
2023-02-23T08:22:47.145Z,90.74
2023-02-23T08:23:51.320Z,90.87
2023-02-23T08:24:52.917Z,90.60
2023-02-23T08:25:55.554Z,90.55
2023-02-23T08:26:57.529Z,90.49
2023-02-23T08:28:04.779Z,90.47
2023-02-23T08:29:07.471Z,90.46
2023-02-23T08:30:10.658Z,90.55
2023-02-23T08:31:13.452Z,90.41
2023-02-23T08:32:16.744Z,90.36
2023-02-23T08:33:19.310Z,90.12
2023-02-23T08:34:22.666Z,90.13
2023-02-23T08:35:25.278Z,90.02
2023-02-23T08:36:29.597Z,90.02
2023-02-23T08:37:31.673Z,90.02
2023-02-23T08:38:36.480Z,89.99
2023-02-23T08:39:38.036Z,90.11
2023-02-23T08:40:41.360Z,90.10
2023-02-23T08:41:42.921Z,90.28
2023-02-23T08:42:45.591Z,90.11
2023-02-23T08:43:59.539Z,90.18
2023-02-23T08:45:05.502Z,90.18
2023-02-23T08:46:10.652Z,90.13
2023-02-23T08:47:13.183Z,90.04
2023-02-23T08:48:15.267Z,90.02
2023-02-23T08:49:18.078Z,89.98
2023-02-23T08:50:19.800Z,90.03
2023-02-23T08:51:22.485Z,89.89
2023-02-23T08:52:25.538Z,89.94
2023-02-23T08:53:29.606Z,89.86
2023-02-23T08:54:32.116Z,89.89
2023-02-23T08:55:35.509Z,89.72
2023-02-23T08:56:38.072Z,89.60
2023-02-23T08:57:39.837Z,89.72
2023-02-23T08:58:43.070Z,89.55
2023-02-23T08:59:45.561Z,89.30
2023-02-23T09:00:47.125Z,89.64
2023-02-23T09:01:50.211Z,89.51
2023-02-23T09:02:53.995Z,89.30
2023-02-23T09:03:56.507Z,89.42
2023-02-23T09:04:58.999Z,89.46
2023-02-23T09:06:07.990Z,89.03
2023-02-23T09:07:14.421Z,89.17
2023-02-23T09:08:18.979Z,89.33
2023-02-23T09:09:21.457Z,89.12
2023-02-23T09:10:24.855Z,88.96
2023-02-23T09:11:27.522Z,89.06
2023-02-23T09:12:29.401Z,88.95
2023-02-23T09:13:32.030Z,88.97
2023-02-23T09:14:33.674Z,88.89
2023-02-23T09:15:36.319Z,89.04
2023-02-23T09:16:39.047Z,88.87
2023-02-23T09:17:42.793Z,88.83
2023-02-23T09:18:45.698Z,89.04
2023-02-23T09:19:48.171Z,88.95
2023-02-23T09:20:51.596Z,88.64
2023-02-23T09:21:53.556Z,88.72
2023-02-23T09:22:56.252Z,88.66
2023-02-23T09:24:01.215Z,88.85
2023-02-23T09:25:04.786Z,88.47
2023-02-23T09:26:08.309Z,88.53
2023-02-23T09:27:12.773Z,88.53
2023-02-23T09:28:17.359Z,88.41
2023-02-23T09:29:19.941Z,88.29
2023-02-23T09:30:23.101Z,88.18
2023-02-23T09:31:25.120Z,88.10
2023-02-23T09:32:27.801Z,88.26
2023-02-23T09:33:29.487Z,87.96
2023-02-23T09:34:32.025Z,88.01
2023-02-23T09:35:36.111Z,87.93
2023-02-23T09:36:39.069Z,87.76
2023-02-23T09:37:40.979Z,87.82
2023-02-23T09:38:43.763Z,87.77
2023-02-23T09:39:48.675Z,87.83
2023-02-23T09:40:53.131Z,87.70
2023-02-23T09:42:08.354Z,87.63
2023-02-23T09:43:16.213Z,87.71
2023-02-23T09:44:26.321Z,87.70
2023-02-23T09:45:36.798Z,87.42
2023-02-23T09:46:44.761Z,87.28
2023-02-23T09:47:59.824Z,87.50
2023-02-23T09:49:04.687Z,87.37
2023-02-23T09:50:14.565Z,87.36
2023-02-23T09:51:21.814Z,87.30
2023-02-23T09:52:28.258Z,87.48
2023-02-23T09:53:44.041Z,87.27
2023-02-23T09:54:47.262Z,87.05
2023-02-23T09:55:52.627Z,87.33
2023-02-23T09:56:56.289Z,87.33
2023-02-23T09:58:06.814Z,87.10
2023-02-23T09:59:15.420Z,87.11
2023-02-23T10:00:20.266Z,86.93
2023-02-23T10:01:55.109Z,87.09
2023-02-23T10:03:24.581Z,87.05
2023-02-23T10:04:30.294Z,86.84
2023-02-23T10:05:39.456Z,86.68
2023-02-23T10:06:45.450Z,86.74
2023-02-23T10:07:55.420Z,86.64
2023-02-23T10:09:07.237Z,86.53
2023-02-23T10:10:22.679Z,86.88
2023-02-23T10:11:29.322Z,86.58
2023-02-23T10:12:39.927Z,86.35
2023-02-23T10:13:51.112Z,86.43
2023-02-23T10:15:06.375Z,86.19
2023-02-23T10:16:16.467Z,86.33
2023-02-23T10:17:29.697Z,86.08
2023-02-23T10:18:46.426Z,86.27
2023-02-23T10:19:54.350Z,86.07
2023-02-23T10:21:04.100Z,86.03
2023-02-23T10:22:10.046Z,86.13
2023-02-23T10:23:16.431Z,86.04
2023-02-23T10:24:22.898Z,85.83
2023-02-23T10:25:36.424Z,86.00
2023-02-23T10:26:52.909Z,85.96
2023-02-23T10:27:58.277Z,86.00
2023-02-23T10:29:21.881Z,85.84
2023-02-23T10:30:27.706Z,85.93
2023-02-23T10:31:37.938Z,86.05
2023-02-23T10:32:46.849Z,86.00
2023-02-23T10:33:48.598Z,85.87
2023-02-23T10:34:56.416Z,86.09
2023-02-23T10:36:13.223Z,85.78
2023-02-23T10:37:18.534Z,85.76
2023-02-23T10:38:20.141Z,85.92
2023-02-23T10:39:23.071Z,85.63
2023-02-23T10:40:28.986Z,85.72
2023-02-23T10:41:32.208Z,85.73
2023-02-23T10:42:35.183Z,85.89
2023-02-23T10:43:37.006Z,85.88
2023-02-23T10:44:39.820Z,85.65
2023-02-23T10:45:46.900Z,85.61
2023-02-23T10:46:55.643Z,85.70
2023-02-23T10:48:02.790Z,85.49
2023-02-23T10:49:04.843Z,85.64
2023-02-23T10:50:10.907Z,85.71
2023-02-23T10:51:21.038Z,85.61
2023-02-23T10:52:31.655Z,85.80
2023-02-23T10:53:37.306Z,85.53
2023-02-23T10:54:45.501Z,85.32
2023-02-23T10:56:00.573Z,85.36
2023-02-23T10:57:05.680Z,85.33
2023-02-23T10:58:17.231Z,85.30
2023-02-23T10:59:21.439Z,85.26
2023-02-23T11:00:33.151Z,85.27
2023-02-23T11:01:41.799Z,85.13
2023-02-23T11:02:47.824Z,84.92
2023-02-23T11:04:05.449Z,84.83
2023-02-23T11:05:28.773Z,84.67
2023-02-23T11:06:35.636Z,84.71
2023-02-23T11:07:37.576Z,84.83
2023-02-23T11:08:41.176Z,84.61
2023-02-23T11:09:47.407Z,84.65
2023-02-23T11:11:25.357Z,84.36
2023-02-23T11:12:41.731Z,84.38
2023-02-23T11:13:46.149Z,84.40
2023-02-23T11:14:48.234Z,84.35
2023-02-23T11:16:00.202Z,84.09
2023-02-23T11:17:02.863Z,84.11
2023-02-23T11:18:05.811Z,83.96
2023-02-23T11:19:22.824Z,84.02
2023-02-23T11:20:30.620Z,83.98
2023-02-23T11:21:35.817Z,83.76
2023-02-23T11:22:41.651Z,83.69
2023-02-23T11:23:45.231Z,83.61
2023-02-23T11:24:46.867Z,83.61
2023-02-23T11:25:52.460Z,83.37
2023-02-23T11:26:57.880Z,83.26
2023-02-23T11:28:01.006Z,83.40
2023-02-23T11:29:12.409Z,83.00
2023-02-23T11:30:14.492Z,82.83
2023-02-23T11:31:21.915Z,82.88
2023-02-23T11:32:29.250Z,83.44
2023-02-23T11:33:35.827Z,83.07
2023-02-23T11:34:40.681Z,82.96
2023-02-23T11:35:42.378Z,82.83
2023-02-23T11:36:44.950Z,82.93
2023-02-23T11:37:47.520Z,82.88
2023-02-23T11:39:03.138Z,82.84
2023-02-23T11:40:22.843Z,82.94
2023-02-23T11:41:25.404Z,82.57
2023-02-23T11:42:33.404Z,82.58
2023-02-23T11:43:37.408Z,82.41
2023-02-23T11:44:39.054Z,82.74
2023-02-23T11:45:47.943Z,82.85
2023-02-23T11:46:51.373Z,82.69
2023-02-23T11:47:56.723Z,82.70
2023-02-23T11:49:01.711Z,82.50
2023-02-23T11:50:05.646Z,82.94
2023-02-23T11:51:07.636Z,82.55
2023-02-23T11:52:16.227Z,82.58
2023-02-23T11:53:22.269Z,82.52
2023-02-23T11:54:30.501Z,82.66
2023-02-23T11:55:35.660Z,82.37
2023-02-23T11:56:37.321Z,82.48
2023-02-23T11:57:39.865Z,82.38
2023-02-23T11:58:46.383Z,82.65
2023-02-23T11:59:49.477Z,82.61
2023-02-23T12:00:56.111Z,82.62
2023-02-23T12:02:07.370Z,82.53
2023-02-23T12:03:21.724Z,82.33
2023-02-23T12:04:29.456Z,82.53
2023-02-23T12:05:33.212Z,82.30
2023-02-23T12:06:39.010Z,82.41
2023-02-23T12:07:47.153Z,82.26
2023-02-23T12:08:54.593Z,82.19
2023-02-23T12:10:03.322Z,82.01
2023-02-23T12:11:12.318Z,82.10
2023-02-23T12:12:19.515Z,82.02
2023-02-23T12:13:30.075Z,82.18
2023-02-23T12:14:41.385Z,81.72
2023-02-23T12:15:51.285Z,81.67
2023-02-23T12:16:58.060Z,81.75
2023-02-23T12:18:04.686Z,81.83
2023-02-23T12:19:19.644Z,81.59
2023-02-23T12:20:26.397Z,81.61
2023-02-23T12:21:35.230Z,81.71
2023-02-23T12:22:44.540Z,81.61
2023-02-23T12:23:52.535Z,81.75
2023-02-23T12:25:02.768Z,81.60
2023-02-23T12:26:12.646Z,81.89
2023-02-23T12:27:18.064Z,81.44
2023-02-23T12:28:27.192Z,81.55
2023-02-23T12:29:36.688Z,81.49
2023-02-23T12:30:47.310Z,81.44
2023-02-23T12:31:54.376Z,81.61
2023-02-23T12:33:02.721Z,81.56
2023-02-23T12:34:13.491Z,81.66
2023-02-23T12:35:20.178Z,81.61
2023-02-23T12:36:33.177Z,81.51
2023-02-23T12:37:39.561Z,81.22
2023-02-23T12:38:50.329Z,81.44
2023-02-23T12:39:58.752Z,81.14
2023-02-23T12:41:07.812Z,81.18
2023-02-23T12:42:20.446Z,81.01
2023-02-23T12:43:30.017Z,81.08
2023-02-23T12:44:42.945Z,81.01
2023-02-23T12:45:52.498Z,80.73
2023-02-23T12:46:59.646Z,80.91
2023-02-23T12:48:13.265Z,80.72
2023-02-23T12:49:25.268Z,80.99
2023-02-23T12:50:31.961Z,80.63
2023-02-23T12:51:40.293Z,80.64
2023-02-23T12:52:49.041Z,80.80
2023-02-23T12:53:53.078Z,80.58
2023-02-23T12:54:56.433Z,80.52
2023-02-23T12:56:07.785Z,80.54
2023-02-23T12:57:23.716Z,80.44
2023-02-23T12:58:34.785Z,80.42
2023-02-23T13:00:00.658Z,80.36
2023-02-23T13:01:17.548Z,80.26
2023-02-23T13:02:25.845Z,80.24
2023-02-23T13:03:46.161Z,79.97
2023-02-23T13:05:15.301Z,79.98
2023-02-23T13:06:23.744Z,79.80
2023-02-23T13:07:35.131Z,79.69
2023-02-23T13:08:57.367Z,79.65
2023-02-23T13:10:13.182Z,79.41
2023-02-23T13:11:27.626Z,79.43
2023-02-23T13:12:51.938Z,79.33
2023-02-23T13:14:01.870Z,79.16
2023-02-23T13:15:19.660Z,79.04
2023-02-23T13:16:31.354Z,79.04
2023-02-23T13:17:39.087Z,79.21
2023-02-23T13:18:47.272Z,79.14
2023-02-23T13:19:53.608Z,79.20
2023-02-23T13:21:01.940Z,78.94
2023-02-23T13:22:15.273Z,78.76
2023-02-23T13:23:26.400Z,78.99
2023-02-23T13:24:37.517Z,78.48
2023-02-23T13:25:47.331Z,78.73
2023-02-23T13:26:56.047Z,78.76
2023-02-23T13:27:59.918Z,78.76
2023-02-23T13:29:07.208Z,78.61
2023-02-23T13:30:12.519Z,78.58
2023-02-23T13:31:24.039Z,78.68
2023-02-23T13:32:31.988Z,78.50
2023-02-23T13:33:44.122Z,78.37
2023-02-23T13:39:48.650Z,78.36
2023-02-23T13:40:58.454Z,78.95
2023-02-23T13:42:15.936Z,78.83
2023-02-23T13:43:29.729Z,79.11
2023-02-23T13:49:28.366Z,79.09
2023-02-23T13:50:37.572Z,78.84
2023-02-23T13:51:45.511Z,79.06
2023-02-23T13:52:48.250Z,79.39
2023-02-23T13:54:01.049Z,79.29
2023-02-23T13:55:04.337Z,79.21
2023-02-23T13:56:08.860Z,79.25
2023-02-23T13:57:17.257Z,79.14
2023-02-23T13:58:25.847Z,79.26
2023-02-23T13:59:30.479Z,79.29
2023-02-23T14:00:34.177Z,79.14
2023-02-23T14:01:40.075Z,79.11
2023-02-23T14:02:41.962Z,79.04
2023-02-23T14:03:48.667Z,78.98
2023-02-23T14:04:52.612Z,79.04
2023-02-23T14:05:59.378Z,78.97
2023-02-23T14:07:05.173Z,78.68
2023-02-23T14:08:08.413Z,78.63
2023-02-23T14:09:13.906Z,78.99
2023-02-23T14:10:20.187Z,78.85
2023-02-23T14:11:45.180Z,78.70
2023-02-23T14:13:07.507Z,78.87
2023-02-23T14:14:13.828Z,78.85
2023-02-23T14:15:45.233Z,78.53
2023-02-23T14:17:11.897Z,78.75
2023-02-23T14:23:17.529Z,78.47
2023-02-23T14:24:23.002Z,78.24
2023-02-23T14:25:45.299Z,78.24
2023-02-23T14:27:40.294Z,78.18
2023-02-23T14:28:44.807Z,78.26
2023-02-23T14:30:25.241Z,78.34
2023-02-23T14:31:31.784Z,78.43
2023-02-23T14:37:31.999Z,78.37
2023-02-23T14:38:47.497Z,78.42
2023-02-23T14:39:52.489Z,78.79
2023-02-23T14:40:55.306Z,78.54
2023-02-23T14:42:00.849Z,78.38
2023-02-23T14:43:04.275Z,78.72
2023-02-23T14:44:20.156Z,78.83
2023-02-23T14:45:32.616Z,78.89
2023-02-23T14:46:36.919Z,78.71
2023-02-23T14:47:43.515Z,78.71
2023-02-23T14:48:58.460Z,78.64
2023-02-23T14:54:41.703Z,78.71
2023-02-23T14:55:45.499Z,78.74
2023-02-23T14:56:48.835Z,79.00
2023-02-23T14:57:52.528Z,78.75
2023-02-23T14:58:55.309Z,78.64
2023-02-23T15:00:00.402Z,78.76
2023-02-23T15:01:01.915Z,78.63
2023-02-23T15:02:10.316Z,78.57
2023-02-23T15:03:13.472Z,78.66
2023-02-23T15:04:19.510Z,78.61
2023-02-23T15:05:23.888Z,78.64
2023-02-23T15:06:26.863Z,78.53
2023-02-23T15:07:33.095Z,78.32
2023-02-23T15:08:44.606Z,78.32
2023-02-23T15:09:48.743Z,78.42
2023-02-23T15:10:52.962Z,78.48
2023-02-23T15:12:00.161Z,78.23
2023-02-23T15:13:09.949Z,78.13
2023-02-23T15:14:26.838Z,78.20
2023-02-23T15:15:31.639Z,77.93
2023-02-23T15:16:36.314Z,77.91
2023-02-23T15:17:43.894Z,77.90
2023-02-23T15:21:14.452Z,77.86
2023-02-23T15:22:24.641Z,77.66
2023-02-23T15:23:26.436Z,77.74